createdAt,value
2017-10-02T00:00:14.990Z,2.30
2017-10-02T00:02:42.719Z,2.40
2017-10-02T00:05:10.324Z,3.17
2017-10-02T00:07:38.800Z,2.90
2017-10-02T00:10:06.445Z,2.20
2017-10-02T00:12:34.387Z,2.87
2017-10-02T00:15:02.001Z,2.53
2017-10-02T00:17:30.477Z,3.00
2017-10-02T00:19:58.857Z,2.80
2017-10-02T00:22:27.279Z,3.43
2017-10-02T00:24:54.883Z,3.17
2017-10-02T00:27:22.504Z,3.03
2017-10-02T00:29:50.157Z,3.17
2017-10-02T00:32:17.768Z,2.20
2017-10-02T00:34:46.149Z,3.30
2017-10-02T00:37:13.799Z,2.83
2017-10-02T00:39:41.413Z,2.57
2017-10-02T00:42:09.024Z,3.30
2017-10-02T00:44:36.692Z,2.93
2017-10-02T00:47:04.302Z,2.80
2017-10-02T00:49:32.003Z,3.40
2017-10-02T00:51:59.663Z,3.20
2017-10-02T00:54:27.333Z,4.17
2017-10-02T00:56:54.977Z,3.20
2017-10-02T00:59:22.600Z,2.90
2017-10-02T01:01:50.210Z,2.77
2017-10-02T01:04:17.864Z,2.80
2017-10-02T01:06:45.494Z,2.73
2017-10-02T01:09:13.108Z,3.43
2017-10-02T01:11:40.766Z,2.60
2017-10-02T01:14:08.391Z,2.90
2017-10-02T01:16:36.050Z,3.23
2017-10-02T01:19:03.738Z,3.43
2017-10-02T01:21:31.450Z,2.90
2017-10-02T01:23:59.867Z,3.30
2017-10-02T01:26:27.483Z,3.70
2017-10-02T01:28:55.872Z,2.40
2017-10-02T01:31:24.286Z,3.33
2017-10-02T01:33:51.905Z,3.67
2017-10-02T01:36:20.296Z,2.90
2017-10-02T01:38:48.701Z,3.43
2017-10-02T01:41:16.311Z,3.47
2017-10-02T01:43:43.965Z,3.40
2017-10-02T01:46:11.583Z,3.60
2017-10-02T01:48:39.178Z,2.00
2017-10-02T01:51:06.827Z,3.00
2017-10-02T01:53:34.438Z,3.07
2017-10-02T01:56:02.814Z,3.20
2017-10-02T01:58:31.235Z,3.00
2017-10-02T02:00:58.842Z,3.17
2017-10-02T02:03:26.446Z,3.03
2017-10-02T02:05:54.101Z,2.67
2017-10-02T02:08:21.711Z,3.97
2017-10-02T02:10:49.342Z,2.67
2017-10-02T02:13:16.992Z,3.73
2017-10-02T02:15:44.609Z,3.50
2017-10-02T02:18:12.251Z,2.87
2017-10-02T02:20:39.916Z,3.50
2017-10-02T02:23:07.533Z,2.80
2017-10-02T02:25:35.234Z,3.63
2017-10-02T02:28:02.891Z,2.70
2017-10-02T02:30:30.549Z,4.10
2017-10-02T02:32:58.153Z,2.53
2017-10-02T02:35:25.777Z,2.60
2017-10-02T02:37:53.542Z,3.03
2017-10-02T02:40:21.162Z,3.10
2017-10-02T02:42:49.550Z,3.27
2017-10-02T02:45:17.207Z,3.30
2017-10-02T02:47:44.828Z,2.97
2017-10-02T02:50:12.450Z,2.07
2017-10-02T02:52:40.089Z,2.83
2017-10-02T02:55:08.467Z,2.77
2017-10-02T02:57:36.870Z,2.93
2017-10-02T03:00:04.490Z,2.40
2017-10-02T03:02:32.902Z,2.83
2017-10-02T03:05:00.512Z,3.40
2017-10-02T03:07:28.153Z,2.80
2017-10-02T03:09:55.760Z,2.87
2017-10-02T03:12:24.172Z,3.20
2017-10-02T03:14:51.956Z,3.00
2017-10-02T03:17:19.722Z,2.83
2017-10-02T03:19:47.344Z,3.57
2017-10-02T03:22:15.765Z,3.00
2017-10-02T03:24:43.382Z,3.30
2017-10-02T03:27:11.797Z,2.30
2017-10-02T03:29:39.466Z,2.97
2017-10-02T03:32:07.115Z,3.50
2017-10-02T03:34:34.759Z,3.30
2017-10-02T03:37:02.390Z,2.70
2017-10-02T03:39:30.023Z,2.50
2017-10-02T03:41:57.634Z,2.80
2017-10-02T03:44:26.017Z,2.10
2017-10-02T03:46:53.657Z,2.87
2017-10-02T03:49:22.059Z,2.60
2017-10-02T03:51:49.699Z,3.00
2017-10-02T03:54:18.091Z,3.37
2017-10-02T03:56:46.504Z,3.03
2017-10-02T03:59:14.132Z,2.43
2017-10-02T04:01:42.562Z,2.40
2017-10-02T04:04:10.213Z,2.90
2017-10-02T04:06:37.986Z,2.73
2017-10-02T04:09:05.619Z,2.90
2017-10-02T04:11:33.280Z,2.03
2017-10-02T04:14:00.990Z,2.53
2017-10-02T04:16:28.678Z,2.73
2017-10-02T04:18:57.109Z,2.77
2017-10-02T04:21:24.755Z,2.40
2017-10-02T04:23:52.366Z,2.60
2017-10-02T04:26:20.019Z,2.80
2017-10-02T04:28:47.656Z,2.70
2017-10-02T04:31:15.270Z,2.67
2017-10-02T04:33:43.669Z,2.40
2017-10-02T04:36:11.297Z,2.50
2017-10-02T04:38:38.943Z,2.63
2017-10-02T04:41:06.563Z,2.50
2017-10-02T04:43:34.214Z,2.40
2017-10-02T04:46:02.584Z,3.20
2017-10-02T04:48:30.987Z,2.63
2017-10-02T04:50:58.686Z,2.47
2017-10-02T04:53:26.447Z,2.40
2017-10-02T04:55:54.055Z,2.90
2017-10-02T04:58:22.436Z,2.47
2017-10-02T05:00:50.831Z,2.20
2017-10-02T05:03:18.451Z,3.40
2017-10-02T05:05:46.093Z,2.77
2017-10-02T05:08:13.743Z,2.97
2017-10-02T05:10:41.382Z,3.00
2017-10-02T05:13:08.996Z,2.97
2017-10-02T05:15:36.632Z,2.40
2017-10-02T05:18:04.254Z,2.70
2017-10-02T05:20:31.891Z,2.97
2017-10-02T05:23:00.268Z,3.40
2017-10-02T05:25:28.683Z,3.70
2017-10-02T05:27:56.301Z,3.03
2017-10-02T05:30:24.009Z,3.17
2017-10-02T05:32:51.625Z,2.43
2017-10-02T05:35:20.030Z,3.03
2017-10-02T05:37:48.415Z,2.80
2017-10-02T05:40:16.818Z,2.60
2017-10-02T05:42:44.466Z,2.30
2017-10-02T05:45:12.136Z,3.13
2017-10-02T05:47:39.753Z,2.47
2017-10-02T05:50:07.398Z,3.30
2017-10-02T05:52:35.677Z,2.40
2017-10-02T05:55:03.337Z,3.43
2017-10-02T05:57:30.964Z,2.80
2017-10-02T05:59:58.641Z,3.33
2017-10-02T06:02:26.282Z,2.63
2017-10-02T06:04:53.893Z,2.40
2017-10-02T06:07:21.504Z,2.43
2017-10-02T06:09:49.133Z,2.70
2017-10-02T06:12:17.511Z,2.33
2017-10-02T06:14:45.161Z,2.43
2017-10-02T06:17:12.906Z,2.80
2017-10-02T06:19:40.572Z,2.40
2017-10-02T06:22:08.178Z,2.70
2017-10-02T06:24:35.815Z,3.00
2017-10-02T06:27:05.093Z,2.77
2017-10-02T06:29:32.699Z,2.87
2017-10-02T06:32:01.139Z,2.90
2017-10-02T06:34:28.899Z,2.60
2017-10-02T06:36:56.537Z,3.37
2017-10-02T06:39:24.154Z,2.40
2017-10-02T06:41:52.574Z,3.57
2017-10-02T06:44:20.189Z,3.23
2017-10-02T06:46:47.932Z,2.40
2017-10-02T06:49:15.553Z,2.83
2017-10-02T06:51:43.198Z,2.37
2017-10-02T06:54:11.578Z,2.37
2017-10-02T06:56:40.002Z,2.60
2017-10-02T06:59:07.982Z,2.70
2017-10-02T07:01:35.595Z,2.50
2017-10-02T07:04:04.146Z,3.97
2017-10-02T07:06:31.905Z,3.13
2017-10-02T07:08:59.552Z,2.00
2017-10-02T07:11:27.202Z,3.07
2017-10-02T07:13:54.810Z,3.17
2017-10-02T07:16:23.277Z,2.90
2017-10-02T07:18:50.885Z,2.60
2017-10-02T07:21:18.551Z,2.67
2017-10-02T07:23:46.230Z,2.40
2017-10-02T07:26:13.870Z,1.80
2017-10-02T07:28:41.483Z,2.87
2017-10-02T07:31:09.259Z,2.57
2017-10-02T07:33:36.873Z,2.63
2017-10-02T07:36:04.518Z,2.77
2017-10-02T07:38:32.144Z,3.20
2017-10-02T07:40:59.782Z,2.40
2017-10-02T07:43:27.402Z,2.20
2017-10-02T07:45:55.066Z,3.10
2017-10-02T07:48:22.715Z,2.80
2017-10-02T07:50:50.322Z,1.97
2017-10-02T07:53:17.992Z,3.00
2017-10-02T07:55:45.750Z,3.10
2017-10-02T07:58:13.402Z,3.07
2017-10-02T08:00:41.043Z,2.63
2017-10-02T08:03:08.667Z,2.37
2017-10-02T08:05:37.048Z,3.90
2017-10-02T08:08:05.488Z,3.27
2017-10-02T08:10:33.102Z,3.27
2017-10-02T08:13:01.527Z,3.20
2017-10-02T08:15:29.135Z,3.07
2017-10-02T08:17:57.545Z,2.53
2017-10-02T08:20:25.158Z,2.57
2017-10-02T08:22:52.795Z,2.33
2017-10-02T08:25:20.467Z,1.90
2017-10-02T08:27:48.109Z,2.70
2017-10-02T08:30:15.729Z,3.23
2017-10-02T08:32:44.161Z,2.50
2017-10-02T08:35:11.778Z,2.33
2017-10-02T08:37:39.433Z,2.00
2017-10-02T08:40:07.963Z,2.37
2017-10-02T08:42:36.362Z,2.10
2017-10-02T08:45:04.160Z,2.73
2017-10-02T08:47:32.603Z,2.20
2017-10-02T08:50:00.249Z,2.40
2017-10-02T08:52:27.860Z,2.37
2017-10-02T08:54:56.303Z,2.87
2017-10-02T08:57:23.933Z,2.63
2017-10-02T08:59:51.578Z,2.10
2017-10-02T09:02:19.997Z,2.20
2017-10-02T09:04:47.631Z,2.10
2017-10-02T09:07:15.287Z,2.50
2017-10-02T09:09:42.898Z,2.00
2017-10-02T09:12:10.645Z,2.63
2017-10-02T09:14:38.319Z,2.87
2017-10-02T09:17:05.931Z,2.30
2017-10-02T09:19:35.374Z,2.77
2017-10-02T09:22:03.123Z,2.73
2017-10-02T09:24:30.771Z,2.20
2017-10-02T09:26:58.479Z,3.00
2017-10-02T09:29:26.228Z,1.93
2017-10-02T09:31:54.005Z,2.63
2017-10-02T09:34:21.667Z,2.80
2017-10-02T09:36:49.319Z,1.90
2017-10-02T09:39:16.961Z,2.10
2017-10-02T09:41:44.570Z,2.43
2017-10-02T09:44:12.227Z,2.17
2017-10-02T09:46:39.838Z,2.00
2017-10-02T09:49:07.492Z,1.40
2017-10-02T09:51:35.123Z,2.17
2017-10-02T09:54:02.851Z,2.20
2017-10-02T09:56:30.461Z,2.40
2017-10-02T09:58:58.885Z,2.07
2017-10-02T10:01:26.503Z,2.73
2017-10-02T10:03:54.883Z,2.20
2017-10-02T10:06:23.291Z,2.40
2017-10-02T10:08:50.977Z,2.83
2017-10-02T10:11:18.586Z,2.17
2017-10-02T10:13:47.000Z,2.63
2017-10-02T10:16:14.907Z,2.43
2017-10-02T10:18:42.870Z,2.63
2017-10-02T10:21:10.737Z,3.13
2017-10-02T10:23:38.401Z,3.20
2017-10-02T10:26:06.063Z,3.30
2017-10-02T10:28:33.706Z,3.20
2017-10-02T10:31:01.352Z,3.20
2017-10-02T10:33:29.146Z,2.87
2017-10-02T10:35:56.770Z,3.57
2017-10-02T10:38:24.698Z,4.00
2017-10-02T10:40:53.271Z,4.30
2017-10-02T10:43:20.927Z,4.37
2017-10-02T10:45:48.550Z,3.80
2017-10-02T10:48:16.244Z,4.10
2017-10-02T10:50:44.159Z,3.53
2017-10-02T10:53:12.590Z,3.70
2017-10-02T10:55:40.195Z,4.40
2017-10-02T10:58:08.665Z,4.60
2017-10-02T11:00:36.391Z,3.80
2017-10-02T11:03:04.261Z,4.30
2017-10-02T11:05:32.048Z,4.03
2017-10-02T11:08:00.219Z,4.73
2017-10-02T11:10:28.709Z,4.43
2017-10-02T11:12:56.340Z,4.43
2017-10-02T11:15:24.040Z,4.17
2017-10-02T11:17:52.460Z,4.40
2017-10-02T11:20:20.125Z,5.13
2017-10-02T11:22:47.747Z,5.23
2017-10-02T11:25:16.317Z,4.50
2017-10-02T11:27:44.803Z,6.10
2017-10-02T11:30:12.539Z,4.27
2017-10-02T11:32:40.200Z,4.50
2017-10-02T11:35:07.811Z,6.47
2017-10-02T11:37:36.192Z,4.37
2017-10-02T11:40:04.944Z,4.80
2017-10-02T11:42:32.809Z,4.60
2017-10-02T11:45:00.779Z,4.37
2017-10-02T11:47:28.646Z,4.97
2017-10-02T11:49:56.618Z,5.20
2017-10-02T11:52:24.492Z,5.70
2017-10-02T11:54:52.456Z,5.63
2017-10-02T11:57:20.547Z,5.40
2017-10-02T11:59:49.327Z,3.97
2017-10-02T12:02:16.966Z,4.87
2017-10-02T12:04:44.670Z,4.83
2017-10-02T12:07:13.082Z,5.63
2017-10-02T12:09:40.690Z,4.27
2017-10-02T12:12:08.453Z,4.70
2017-10-02T12:14:36.113Z,5.40
2017-10-02T12:17:04.499Z,4.93
2017-10-02T12:19:32.147Z,4.80
2017-10-02T12:21:59.768Z,5.20
2017-10-02T12:24:27.406Z,5.33
2017-10-02T12:26:55.797Z,6.33
2017-10-02T12:29:24.200Z,5.27
2017-10-02T12:31:51.822Z,6.40
2017-10-02T12:34:20.234Z,6.00
2017-10-02T12:36:47.927Z,5.53
2017-10-02T12:39:15.576Z,7.50
2017-10-02T12:41:43.251Z,7.77
2017-10-02T12:44:10.956Z,6.70
2017-10-02T12:46:39.443Z,5.83
2017-10-02T12:49:07.990Z,6.00
2017-10-02T12:51:35.853Z,7.37
2017-10-02T12:54:03.489Z,5.80
2017-10-02T12:56:31.172Z,6.17
2017-10-02T12:58:59.559Z,6.83
2017-10-02T13:01:27.215Z,6.90
2017-10-02T13:03:54.843Z,6.97
2017-10-02T13:06:22.473Z,6.67
2017-10-02T13:08:51.241Z,6.80
2017-10-02T13:11:18.883Z,6.30
2017-10-02T13:13:47.770Z,7.20
2017-10-02T13:16:15.427Z,7.03
2017-10-02T13:18:43.042Z,8.27
2017-10-02T13:21:11.460Z,7.90
2017-10-02T13:23:39.155Z,8.30
2017-10-02T13:26:06.799Z,8.77
2017-10-02T13:28:34.462Z,6.30
2017-10-02T13:31:02.083Z,9.67
2017-10-02T13:33:30.721Z,8.30
2017-10-02T13:35:58.498Z,8.27
2017-10-02T13:38:26.873Z,8.17
2017-10-02T13:40:54.496Z,7.70
2017-10-02T13:43:22.148Z,6.70
2017-10-02T13:45:49.859Z,7.80
2017-10-02T13:48:17.521Z,8.20
2017-10-02T13:50:45.142Z,7.33
2017-10-02T13:53:15.435Z,7.47
2017-10-02T13:55:43.248Z,7.50
2017-10-02T13:58:10.858Z,6.80
2017-10-02T14:00:39.266Z,7.67
2017-10-02T14:03:06.899Z,6.87
2017-10-02T14:05:34.589Z,8.00
2017-10-02T14:08:02.209Z,7.70
2017-10-02T14:10:30.613Z,6.70
2017-10-02T14:12:58.987Z,6.87
2017-10-02T14:15:27.403Z,6.47
2017-10-02T14:17:55.026Z,6.43
2017-10-02T14:20:23.459Z,6.37
2017-10-02T14:22:51.068Z,7.97
2017-10-02T14:25:19.446Z,6.40
2017-10-02T14:27:47.873Z,6.47
2017-10-02T14:30:15.488Z,7.07
2017-10-02T14:32:43.909Z,7.60
2017-10-02T14:35:11.538Z,6.63
2017-10-02T14:37:39.918Z,7.50
2017-10-02T14:40:08.335Z,7.00
2017-10-02T14:42:36.005Z,6.67
2017-10-02T14:45:03.657Z,6.20
2017-10-02T14:47:31.275Z,6.60
2017-10-02T14:49:59.693Z,8.90
2017-10-02T14:52:27.310Z,6.83
2017-10-02T14:54:55.718Z,6.70
2017-10-02T14:57:24.187Z,6.70
2017-10-02T14:59:52.750Z,6.03
2017-10-02T15:02:20.497Z,6.67
2017-10-02T15:04:48.144Z,6.20
2017-10-02T15:07:15.905Z,5.20
2017-10-02T15:09:43.544Z,6.67
2017-10-02T15:12:11.170Z,5.77
2017-10-02T15:14:39.630Z,5.57
2017-10-02T15:17:07.272Z,5.73
2017-10-02T15:19:34.928Z,5.57
2017-10-02T15:22:02.541Z,5.90
2017-10-02T15:24:31.301Z,4.97
2017-10-02T15:26:59.083Z,4.43
2017-10-02T15:29:27.560Z,5.83
2017-10-02T15:31:55.194Z,4.70
2017-10-02T15:34:22.807Z,5.20
2017-10-02T15:36:51.219Z,4.70
2017-10-02T15:39:18.837Z,5.07
2017-10-02T15:41:47.247Z,4.60
2017-10-02T15:44:14.857Z,3.70
2017-10-02T15:46:42.507Z,4.00
2017-10-02T15:49:10.153Z,3.80
2017-10-02T15:51:37.798Z,5.13
2017-10-02T15:54:05.496Z,5.23
2017-10-02T15:56:33.143Z,4.73
2017-10-02T15:59:00.783Z,4.30
2017-10-02T16:01:28.686Z,4.00
2017-10-02T16:03:56.332Z,4.40
2017-10-02T16:06:23.951Z,4.47
2017-10-02T16:08:52.365Z,4.83
2017-10-02T16:11:19.988Z,5.17
2017-10-02T16:13:48.394Z,4.60
2017-10-02T16:16:16.019Z,4.30
2017-10-02T16:18:43.682Z,4.17
2017-10-02T16:21:11.526Z,3.40
2017-10-02T16:23:39.287Z,3.83
2017-10-02T16:26:06.898Z,4.30
2017-10-02T16:28:34.548Z,4.93
2017-10-02T16:31:02.925Z,4.17
2017-10-02T16:33:31.327Z,4.40
2017-10-02T16:35:59.123Z,4.13
2017-10-02T16:38:26.748Z,4.10
2017-10-02T16:40:54.358Z,4.63
2017-10-02T16:43:22.006Z,3.67
2017-10-02T16:45:49.655Z,4.93
2017-10-02T16:48:17.287Z,3.80
2017-10-02T16:50:45.848Z,4.50
2017-10-02T16:53:14.366Z,3.83
2017-10-02T16:55:42.073Z,4.57
2017-10-02T16:58:09.771Z,5.93
2017-10-02T17:00:38.213Z,5.13
2017-10-02T17:03:05.948Z,4.70
2017-10-02T17:05:33.596Z,5.33
2017-10-02T17:08:01.226Z,4.10
2017-10-02T17:10:28.868Z,4.00
2017-10-02T17:12:56.514Z,5.30
2017-10-02T17:15:24.178Z,5.23
2017-10-02T17:17:51.806Z,5.40
2017-10-02T17:20:19.472Z,4.70
2017-10-02T17:22:47.102Z,5.43
2017-10-02T17:25:14.756Z,4.60
2017-10-02T17:27:42.524Z,3.97
2017-10-02T17:30:10.187Z,6.30
2017-10-02T17:32:37.801Z,5.97
2017-10-02T17:35:05.411Z,5.10
2017-10-02T17:37:33.979Z,4.13
2017-10-02T17:40:02.536Z,4.50
2017-10-02T17:42:30.352Z,4.27
2017-10-02T17:44:58.867Z,3.63
2017-10-02T17:47:26.653Z,5.47
2017-10-02T17:49:54.426Z,4.83
2017-10-02T17:52:22.206Z,4.80
2017-10-02T17:54:50.789Z,4.93
2017-10-02T17:57:18.866Z,5.30
2017-10-02T17:59:47.304Z,4.93
2017-10-02T18:02:14.930Z,6.27
2017-10-02T18:04:43.342Z,4.90
2017-10-02T18:07:10.976Z,4.90
2017-10-02T18:09:39.389Z,5.43
2017-10-02T18:12:07.028Z,5.00
2017-10-02T18:14:34.751Z,4.77
2017-10-02T18:17:03.151Z,5.20
2017-10-02T18:19:31.599Z,5.80
2017-10-02T18:21:59.227Z,6.00
2017-10-02T18:24:26.874Z,5.10
2017-10-02T18:26:55.294Z,4.70
2017-10-02T18:29:22.923Z,4.70
2017-10-02T18:31:50.535Z,5.70
2017-10-02T18:34:18.170Z,5.73
2017-10-02T18:36:46.275Z,6.20
2017-10-02T18:39:14.238Z,6.20
2017-10-02T18:41:42.319Z,5.40
2017-10-02T18:44:10.283Z,5.87
2017-10-02T18:46:38.454Z,6.00
2017-10-02T18:49:06.432Z,5.20
2017-10-02T18:57:27.237Z,4.87
2017-10-02T18:59:55.243Z,5.60
2017-10-02T19:02:23.315Z,3.97
2017-10-02T19:04:51.278Z,6.03
2017-10-02T19:07:19.248Z,4.50
2017-10-02T19:09:47.215Z,4.60
2017-10-02T19:12:15.186Z,4.93
2017-10-02T19:14:43.166Z,5.30
2017-10-02T19:17:10.946Z,4.80
2017-10-02T19:19:38.769Z,5.20
2017-10-02T19:22:06.534Z,5.40
2017-10-02T19:24:34.363Z,3.83
2017-10-02T19:27:02.874Z,4.30
2017-10-02T19:29:30.635Z,4.03
2017-10-02T19:31:58.451Z,4.73
2017-10-02T19:34:26.194Z,4.27
2017-10-02T19:36:53.934Z,5.10
2017-10-02T19:39:21.707Z,4.10
2017-10-02T19:41:50.211Z,3.93
2017-10-02T19:44:18.240Z,3.43
2017-10-02T19:46:46.048Z,4.90
2017-10-02T19:49:13.843Z,3.43
2017-10-02T19:51:42.356Z,4.10
2017-10-02T19:54:10.283Z,3.60
2017-10-02T19:56:38.864Z,3.00
2017-10-02T19:59:06.728Z,3.40
2017-10-02T20:01:34.478Z,4.00
2017-10-02T20:04:02.269Z,4.70
2017-10-02T20:06:30.805Z,3.60
2017-10-02T20:08:58.657Z,3.60
2017-10-02T20:11:26.592Z,3.63
2017-10-02T20:13:55.217Z,3.97
2017-10-02T20:16:23.014Z,3.50
2017-10-02T20:18:50.812Z,3.47
2017-10-02T20:21:19.599Z,3.60
2017-10-02T20:23:47.461Z,3.83
2017-10-02T20:26:15.982Z,5.10
2017-10-02T20:28:43.804Z,3.17
2017-10-02T20:31:12.301Z,2.40
2017-10-02T20:33:40.829Z,3.33
2017-10-02T20:36:08.661Z,3.63
2017-10-02T20:38:36.412Z,3.07
2017-10-02T20:41:04.192Z,3.13
2017-10-02T20:43:32.010Z,5.23
2017-10-02T20:46:00.643Z,4.10
2017-10-02T20:48:28.315Z,4.73
2017-10-02T20:50:55.932Z,3.60
2017-10-02T20:53:23.593Z,4.07
2017-10-02T20:55:51.199Z,3.13
2017-10-02T20:58:18.820Z,3.30
2017-10-02T21:00:46.478Z,4.67
2017-10-02T21:03:14.095Z,4.43
2017-10-02T21:05:41.866Z,3.10
2017-10-02T21:08:09.537Z,2.97
2017-10-02T21:10:37.163Z,5.43
2017-10-02T21:13:04.832Z,4.33
2017-10-02T21:15:32.467Z,3.40
2017-10-02T21:18:00.838Z,2.80
2017-10-02T21:20:28.477Z,4.00
2017-10-02T21:22:56.091Z,4.90
2017-10-02T21:25:23.740Z,3.60
2017-10-02T21:27:52.127Z,3.63
2017-10-02T21:30:19.798Z,3.10
2017-10-02T21:32:47.427Z,3.30
2017-10-02T21:35:15.868Z,2.60
2017-10-02T21:37:43.482Z,3.50
2017-10-02T21:40:11.900Z,3.40
2017-10-02T21:42:39.522Z,3.00
2017-10-02T21:45:07.938Z,4.03
2017-10-02T21:47:35.635Z,2.90
2017-10-02T21:50:03.284Z,3.40
2017-10-02T21:52:31.874Z,3.00
2017-10-02T21:54:59.533Z,4.07
2017-10-02T21:57:27.165Z,3.07
2017-10-02T21:59:54.811Z,2.80
2017-10-02T22:02:22.438Z,3.30
2017-10-02T22:04:50.090Z,3.07
2017-10-02T22:07:17.898Z,2.53
2017-10-02T22:09:45.603Z,2.60
2017-10-02T22:12:13.217Z,3.33
2017-10-02T22:14:41.641Z,2.53
2017-10-02T22:17:09.258Z,3.43
2017-10-02T22:19:37.666Z,3.60
2017-10-02T22:22:05.361Z,2.60
2017-10-02T22:24:33.022Z,2.73
2017-10-02T22:27:00.635Z,2.50
2017-10-02T22:29:28.252Z,2.50
2017-10-02T22:31:55.898Z,2.47
2017-10-02T22:34:23.522Z,3.27
2017-10-02T22:36:51.138Z,3.27
2017-10-02T22:39:18.787Z,2.03
2017-10-02T22:41:46.391Z,3.50
2017-10-02T22:44:14.096Z,2.67
2017-10-02T22:46:41.707Z,3.93
2017-10-02T22:49:10.087Z,2.50
2017-10-02T22:51:38.607Z,3.60
2017-10-02T22:54:06.222Z,3.37
2017-10-02T22:56:33.858Z,3.37
2017-10-02T22:59:01.507Z,2.60
2017-10-02T23:01:29.150Z,4.40
2017-10-02T23:03:56.810Z,2.70
2017-10-02T23:06:24.430Z,3.70
2017-10-02T23:08:52.029Z,2.60
2017-10-02T23:11:19.670Z,2.93
2017-10-02T23:13:48.058Z,3.50
2017-10-02T23:16:16.476Z,3.67
2017-10-02T23:18:44.123Z,2.90
2017-10-02T23:21:11.736Z,2.93
2017-10-02T23:23:39.388Z,3.63
2017-10-02T23:26:07.003Z,2.90
2017-10-02T23:28:34.612Z,3.33
2017-10-02T23:31:02.251Z,3.73
2017-10-02T23:33:30.629Z,2.80
2017-10-02T23:35:59.154Z,3.03
2017-10-02T23:38:27.546Z,4.17
2017-10-02T23:40:55.928Z,3.10
2017-10-02T23:43:23.588Z,3.90
2017-10-02T23:45:51.962Z,3.67
2017-10-02T23:48:20.351Z,4.30
2017-10-02T23:50:48.763Z,3.00
2017-10-02T23:53:16.378Z,2.70
2017-10-02T23:55:44.805Z,3.47
2017-10-02T23:58:12.423Z,3.53
